createdAt,value
2019-06-15T00:03:12.609Z,18.50
2019-06-15T00:07:19.015Z,18.50
2019-06-15T00:11:27.974Z,18.40
2019-06-15T00:15:35.398Z,18.40
2019-06-15T00:19:42.714Z,18.30
2019-06-15T00:23:48.445Z,18.20
2019-06-15T00:27:54.049Z,18.30
2019-06-15T00:32:01.904Z,18.30
2019-06-15T00:36:07.813Z,18.30
2019-06-15T00:40:16.040Z,18.20
2019-06-15T00:44:22.193Z,18.10
2019-06-15T00:48:28.594Z,18.10
2019-06-15T00:52:35.377Z,18.00
2019-06-15T00:56:41.287Z,17.90
2019-06-15T01:00:47.695Z,17.90
2019-06-15T01:04:54.995Z,17.90
2019-06-15T01:09:01.396Z,17.90
2019-06-15T01:13:08.942Z,17.80
2019-06-15T01:17:14.744Z,17.80
2019-06-15T01:21:21.046Z,17.70
2019-06-15T01:25:28.371Z,17.70
2019-06-15T01:29:34.824Z,17.70
2019-06-15T01:33:41.053Z,17.70
2019-06-15T01:37:46.639Z,17.70
2019-06-15T01:41:53.401Z,17.60
2019-06-15T01:45:58.834Z,17.60
2019-06-15T01:50:04.970Z,17.60
2019-06-15T01:54:11.982Z,17.50
2019-06-15T01:58:19.315Z,17.50
2019-06-15T02:02:25.535Z,17.40
2019-06-15T02:06:36.092Z,17.30
2019-06-15T02:10:42.204Z,17.30
2019-06-15T02:14:47.405Z,17.30
2019-06-15T02:18:54.250Z,17.30
2019-06-15T02:22:59.807Z,17.30
2019-06-15T02:27:06.439Z,17.20
2019-06-15T02:31:13.131Z,17.20
2019-06-15T02:35:20.078Z,17.20
2019-06-15T02:39:26.986Z,17.10
2019-06-15T02:43:33.551Z,17.10
2019-06-15T02:47:39.340Z,17.00
2019-06-15T02:51:47.409Z,17.00
2019-06-15T02:55:53.859Z,17.00
2019-06-15T03:00:01.275Z,17.00
2019-06-15T03:04:06.789Z,17.00
2019-06-15T03:08:13.402Z,17.00
2019-06-15T03:12:20.090Z,17.10
2019-06-15T03:16:27.792Z,17.10
2019-06-15T03:20:35.108Z,17.10
2019-06-15T03:24:41.272Z,17.10
2019-06-15T03:28:47.481Z,17.10
2019-06-15T03:32:53.867Z,17.20
2019-06-15T03:36:59.660Z,17.20
2019-06-15T03:41:04.918Z,17.30
2019-06-15T03:45:11.694Z,17.40
2019-06-15T03:49:18.818Z,17.50
2019-06-15T03:53:27.011Z,17.60
2019-06-15T03:57:33.394Z,17.70
2019-06-15T04:01:45.934Z,17.90
2019-06-15T04:05:52.881Z,18.00
2019-06-15T04:10:00.017Z,18.10
2019-06-15T04:14:07.294Z,18.30
2019-06-15T04:18:12.824Z,18.50
2019-06-15T04:22:18.989Z,18.70
2019-06-15T04:26:35.586Z,18.80
2019-06-15T04:30:34.865Z,19.10
2019-06-15T04:34:41.614Z,19.30
2019-06-15T04:38:50.493Z,19.60
2019-06-15T04:42:56.182Z,19.70
2019-06-15T04:47:01.776Z,19.70
2019-06-15T04:51:08.612Z,19.90
2019-06-15T04:55:15.189Z,20.00
2019-06-15T04:59:20.800Z,20.20
2019-06-15T05:03:26.827Z,20.30
2019-06-15T05:07:33.650Z,20.50
2019-06-15T05:11:39.874Z,20.50
2019-06-15T05:15:45.470Z,20.80
2019-06-15T05:20:12.476Z,21.00
2019-06-15T05:24:19.028Z,21.20
2019-06-15T05:28:26.413Z,21.30
2019-06-15T05:32:33.169Z,21.50
2019-06-15T05:36:39.602Z,21.70
2019-06-15T05:40:47.682Z,21.90
2019-06-15T05:44:53.512Z,22.10
2019-06-15T05:49:06.595Z,22.20
2019-06-15T05:53:12.879Z,22.40
2019-06-15T05:57:24.334Z,22.50
2019-06-15T06:01:29.863Z,22.60
2019-06-15T06:05:35.494Z,23.10
2019-06-15T06:09:52.923Z,23.10
2019-06-15T06:13:59.444Z,23.20
2019-06-15T06:18:30.677Z,23.40
2019-06-15T06:22:37.709Z,23.50
2019-06-15T06:26:54.411Z,23.40
2019-06-15T06:31:06.858Z,23.60
2019-06-15T06:35:21.386Z,23.80
2019-06-15T06:39:32.554Z,23.70
2019-06-15T06:43:37.775Z,24.10
2019-06-15T06:47:44.391Z,24.70
2019-06-15T06:51:50.271Z,25.20
2019-06-15T06:55:56.265Z,25.40
2019-06-15T07:00:02.344Z,25.60
2019-06-15T07:04:09.094Z,25.60
2019-06-15T07:08:16.898Z,25.60
2019-06-15T07:12:25.221Z,25.50
2019-06-15T07:16:30.766Z,25.30
2019-06-15T07:20:36.137Z,25.50
2019-06-15T07:24:41.905Z,25.50
2019-06-15T07:28:47.963Z,25.50
2019-06-15T07:32:54.199Z,25.50
2019-06-15T07:37:01.653Z,25.30
2019-06-15T07:41:06.863Z,25.50
2019-06-15T07:45:14.198Z,25.70
2019-06-15T07:49:21.262Z,25.80
2019-06-15T07:53:26.893Z,26.20
2019-06-15T07:57:33.068Z,26.10
2019-06-15T08:01:40.074Z,26.60
2019-06-15T08:05:46.872Z,27.00
2019-06-15T08:09:53.345Z,27.50
2019-06-15T08:13:58.756Z,27.50
2019-06-15T08:18:05.197Z,27.60
2019-06-15T08:22:11.105Z,27.50
2019-06-15T08:26:18.086Z,28.70
2019-06-15T08:30:33.300Z,29.50
2019-06-15T08:34:39.678Z,30.10
2019-06-15T08:38:46.148Z,30.00
2019-06-15T08:42:51.901Z,29.50
2019-06-15T08:46:59.472Z,29.80
2019-06-15T08:51:06.834Z,29.80
2019-06-15T08:55:14.961Z,29.70
2019-06-15T08:59:19.937Z,29.30
2019-06-15T09:03:24.823Z,29.80
2019-06-15T09:07:30.572Z,31.00
2019-06-15T09:11:36.776Z,32.00
2019-06-15T09:16:01.852Z,33.40
2019-06-15T09:20:07.593Z,32.80
2019-06-15T09:24:12.721Z,32.20
2019-06-15T09:28:17.638Z,31.40
2019-06-15T09:32:22.574Z,31.30
2019-06-15T09:36:27.517Z,32.10
2019-06-15T09:40:32.412Z,33.50
2019-06-15T09:44:37.416Z,34.50
2019-06-15T09:48:42.597Z,35.70
2019-06-15T09:52:47.893Z,35.30
2019-06-15T09:56:54.610Z,35.20
2019-06-15T10:01:01.302Z,36.00
2019-06-15T10:05:08.117Z,36.80
2019-06-15T10:09:13.532Z,37.20
2019-06-15T10:13:18.616Z,38.60
2019-06-15T10:17:23.664Z,39.10
2019-06-15T10:21:28.552Z,38.10
2019-06-15T10:25:33.956Z,37.00
2019-06-15T10:29:42.327Z,37.70
2019-06-15T10:33:45.859Z,36.70
2019-06-15T10:37:51.177Z,36.70
2019-06-15T10:41:56.045Z,37.70
2019-06-15T10:46:01.159Z,39.90
2019-06-15T10:50:07.105Z,39.80
2019-06-15T10:54:12.482Z,39.60
2019-06-15T10:58:18.348Z,40.30
2019-06-15T11:02:23.762Z,40.30
2019-06-15T11:06:31.120Z,38.30
2019-06-15T11:11:00.757Z,36.90
2019-06-15T11:15:06.928Z,37.10
2019-06-15T11:19:12.288Z,36.90
2019-06-15T11:23:17.776Z,37.90
2019-06-15T11:27:23.055Z,38.10
2019-06-15T11:31:27.967Z,36.60
2019-06-15T11:35:33.412Z,36.70
2019-06-15T11:39:38.511Z,36.10
2019-06-15T11:43:43.380Z,35.00
2019-06-15T11:47:48.654Z,34.10
2019-06-15T11:51:53.991Z,33.20
2019-06-15T11:55:58.894Z,33.10
2019-06-15T12:00:04.280Z,32.90
2019-06-15T12:04:09.148Z,32.70
2019-06-15T12:08:14.591Z,33.50
2019-06-15T12:12:19.707Z,33.40
2019-06-15T12:16:24.821Z,32.90
2019-06-15T12:20:30.594Z,32.50
2019-06-15T12:24:35.744Z,32.40
2019-06-15T12:28:41.087Z,32.00
2019-06-15T12:32:48.111Z,31.60
2019-06-15T12:36:53.567Z,31.70
2019-06-15T12:40:58.836Z,31.60
2019-06-15T12:45:04.604Z,31.60
2019-06-15T12:49:09.848Z,31.40
2019-06-15T12:53:15.238Z,31.10
2019-06-15T12:57:20.655Z,31.00
2019-06-15T13:01:25.814Z,30.70
2019-06-15T13:05:31.102Z,30.60
2019-06-15T13:09:37.845Z,30.90
2019-06-15T13:13:42.990Z,31.60
2019-06-15T13:17:48.241Z,33.10
2019-06-15T13:21:53.811Z,33.50
2019-06-15T13:26:13.604Z,33.90
2019-06-15T13:30:21.555Z,35.80
2019-06-15T13:34:26.881Z,37.00
2019-06-15T13:38:32.369Z,37.80
2019-06-15T13:42:38.130Z,36.60
2019-06-15T13:46:43.197Z,35.90
2019-06-15T13:50:49.094Z,35.10
2019-06-15T13:54:54.662Z,35.50
2019-06-15T13:59:00.014Z,36.50
2019-06-15T14:03:05.471Z,38.00
2019-06-15T14:07:10.929Z,38.70
2019-06-15T14:11:16.266Z,38.90
2019-06-15T14:15:21.598Z,39.50
2019-06-15T14:19:27.578Z,41.00
2019-06-15T14:23:32.921Z,40.00
2019-06-15T14:27:38.441Z,40.00
2019-06-15T14:31:50.316Z,40.20
2019-06-15T14:35:50.919Z,40.60
2019-06-15T14:39:56.254Z,39.50
2019-06-15T14:44:02.791Z,40.00
2019-06-15T14:48:08.013Z,40.60
2019-06-15T14:52:13.327Z,40.30
2019-06-15T14:56:18.451Z,40.10
2019-06-15T15:00:24.385Z,40.60
2019-06-15T15:04:29.725Z,42.20
2019-06-15T15:08:36.742Z,41.50
2019-06-15T15:12:42.149Z,41.30
2019-06-15T15:16:47.427Z,41.30
2019-06-15T15:20:52.582Z,40.70
2019-06-15T15:24:57.792Z,39.90
2019-06-15T15:29:02.957Z,40.30
2019-06-15T15:33:08.642Z,40.40
2019-06-15T15:37:15.837Z,39.50
2019-06-15T15:41:22.021Z,38.80
2019-06-15T15:45:27.194Z,39.10
2019-06-15T15:49:32.297Z,38.80
2019-06-15T15:53:37.567Z,38.40
2019-06-15T15:57:42.661Z,39.20
2019-06-15T16:01:56.657Z,38.50
2019-06-15T16:06:02.210Z,38.90
2019-06-15T16:10:07.273Z,38.30
2019-06-15T16:14:46.323Z,37.80
2019-06-15T16:18:51.266Z,36.30
2019-06-15T16:23:09.817Z,35.00
2019-06-15T16:32:08.559Z,32.50
2019-06-15T16:36:46.741Z,31.80
2019-06-15T16:40:51.059Z,31.30
2019-06-15T16:44:57.623Z,31.10
2019-06-15T16:49:03.393Z,30.60
2019-06-15T16:53:08.809Z,30.50
2019-06-15T16:57:15.956Z,30.30
2019-06-15T17:01:22.362Z,30.30
2019-06-15T17:05:27.818Z,30.10
2019-06-15T17:09:36.178Z,30.00
2019-06-15T17:13:41.503Z,29.90
2019-06-15T17:17:47.282Z,29.60
2019-06-15T17:21:54.057Z,29.50
2019-06-15T17:25:59.501Z,29.30
2019-06-15T17:30:07.708Z,29.10
2019-06-15T17:34:13.034Z,28.80
2019-06-15T17:38:18.146Z,28.60
2019-06-15T17:42:25.885Z,28.50
2019-06-15T17:46:30.647Z,28.20
2019-06-15T17:50:40.370Z,28.00
2019-06-15T17:54:46.788Z,27.70
2019-06-15T17:58:52.169Z,27.40
2019-06-15T18:02:57.513Z,27.20
2019-06-15T18:07:02.750Z,27.00
2019-06-15T18:11:08.096Z,26.80
2019-06-15T18:15:13.368Z,26.50
2019-06-15T18:19:18.249Z,26.20
2019-06-15T18:23:23.225Z,26.10
2019-06-15T18:27:28.161Z,25.80
2019-06-15T18:31:33.019Z,25.50
2019-06-15T18:35:38.015Z,25.20
2019-06-15T18:39:43.115Z,24.90
2019-06-15T18:43:48.424Z,24.60
2019-06-15T18:47:53.910Z,24.40
2019-06-15T18:51:58.861Z,24.20
2019-06-15T18:56:06.991Z,24.00
2019-06-15T19:00:12.032Z,23.90
2019-06-15T19:04:24.708Z,23.80
2019-06-15T19:08:23.580Z,23.60
2019-06-15T19:12:29.971Z,23.40
2019-06-15T19:16:37.052Z,23.20
2019-06-15T19:20:41.567Z,23.10
2019-06-15T19:24:50.291Z,22.90
2019-06-15T19:28:55.959Z,22.70
2019-06-15T19:33:02.236Z,22.60
2019-06-15T19:37:07.302Z,22.50
2019-06-15T19:41:12.241Z,22.40
2019-06-15T19:45:18.795Z,22.30
2019-06-15T19:49:25.851Z,22.30
2019-06-15T19:53:30.385Z,22.20
2019-06-15T19:57:36.492Z,22.00
2019-06-15T20:01:41.678Z,21.90
2019-06-15T20:05:47.115Z,21.90
2019-06-15T20:09:52.757Z,21.90
2019-06-15T20:14:01.569Z,21.80
2019-06-15T20:18:07.577Z,21.80
2019-06-15T20:22:22.242Z,21.80
2019-06-15T20:26:27.524Z,21.80
2019-06-15T20:30:37.022Z,21.70
2019-06-15T20:34:42.554Z,21.50
2019-06-15T20:38:47.782Z,21.40
2019-06-15T20:43:02.035Z,21.40
2019-06-15T20:47:07.134Z,21.30
2019-06-15T20:51:12.659Z,21.30
2019-06-15T20:55:17.825Z,21.20
2019-06-15T20:59:40.489Z,21.10
2019-06-15T21:03:47.063Z,21.00
2019-06-15T21:08:07.037Z,21.00
2019-06-15T21:12:12.500Z,21.00
2019-06-15T21:16:18.330Z,20.90
2019-06-15T21:20:23.464Z,20.80
2019-06-15T21:24:28.678Z,20.70
2019-06-15T21:28:36.808Z,20.60
2019-06-15T21:32:41.908Z,20.60
2019-06-15T21:36:56.581Z,20.50
2019-06-15T21:41:01.134Z,20.50
2019-06-15T21:45:14.400Z,20.40
2019-06-15T21:49:19.704Z,20.30
2019-06-15T21:54:01.942Z,20.30
2019-06-15T21:58:37.099Z,20.30
2019-06-15T22:02:42.343Z,20.20
2019-06-15T22:06:48.121Z,20.10
2019-06-15T22:10:53.174Z,20.10
2019-06-15T22:14:58.234Z,20.00
2019-06-15T22:19:05.948Z,20.00
2019-06-15T22:23:10.143Z,19.90
2019-06-15T22:27:17.102Z,19.80
2019-06-15T22:31:21.983Z,19.80
2019-06-15T22:35:27.055Z,19.80
2019-06-15T22:39:32.687Z,19.70
2019-06-15T22:43:37.859Z,19.70
2019-06-15T22:47:56.049Z,19.60
2019-06-15T22:52:01.378Z,19.50
2019-06-15T22:56:06.860Z,19.50
2019-06-15T23:00:13.801Z,19.40
2019-06-15T23:04:18.857Z,19.40
2019-06-15T23:08:24.177Z,19.40
2019-06-15T23:12:29.334Z,19.40
2019-06-15T23:16:36.875Z,19.30
2019-06-15T23:20:41.419Z,19.30
2019-06-15T23:24:47.801Z,19.30
2019-06-15T23:28:53.121Z,19.30
2019-06-15T23:32:58.795Z,19.30
2019-06-15T23:37:06.742Z,19.20
2019-06-15T23:41:12.199Z,19.30
2019-06-15T23:45:17.629Z,19.20
2019-06-15T23:49:22.838Z,19.10
2019-06-15T23:53:28.049Z,19.10
2019-06-15T23:57:33.317Z,19.00
